Neuburg — 5BQJ2 — position and weather

sailwx.info

Track history (hours):
 
Tides and Currents Weather Stations Pressure Air Temp Water Temp Dewpoint Dewpoint Depression Visibility Wind Speed Wind Dir Waves Ship Positions

Neuburg

Last reported at 2015-Jul-28 02:18 UTC. Time now 2015-Jul-29 09:30 UTC.
Position N 40°57' E 001°58'.

Length 142 m; draft 5.2 m.

Type: Cargo ship. MMSI: 212740000.

Date/timePositionNaut miles runAvg speedWind from/ knotsBaromVisibWave heightAir tempDewpointWater temp
2015-Jul-28 02:18N 40°57' E 001°58'1011.9
2015-Jul-28 01:29N 40°49' E 001°52'1211.9
2015-Jul-28 00:28N 40°38' E 001°44'1111.8
2015-Jul-27 23:33N 40°29' E 001°37'1212.0
2015-Jul-27 22:33N 40°18' E 001°31'1212.2
2015-Jul-27 21:33N 40°07' E 001°24'1312.3
2015-Jul-27 20:30N 39°56' E 001°16'1212.3
2015-Jul-27 19:33N 39°45' E 001°09'1812.8
2015-Jul-27 18:07N 39°29' E 000°58'1012.6
2015-Jul-27 17:21N 39°20' E 000°53'1112.6
2015-Jul-27 16:31N 39°11' E 000°47'1212.1
2015-Jul-27 15:31N 39°00' E 000°39'1212.3
2015-Jul-27 14:32N 38°49' E 000°32'1312.9
2015-Jul-27 13:33N 38°39' E 000°23'1312.6
2015-Jul-27 12:33N 38°32' E 000°09'1312.8
2015-Jul-27 11:33N 38°27' W 000°05'1212.5
2015-Jul-27 10:33N 38°22' W 000°20'17 0.9
2015-Jul-26 16:28N 38°05' W 000°23'1212.8
2015-Jul-26 15:33N 37°53' W 000°26'1212.5
2015-Jul-26 14:33N 37°41' W 000°29'1211.7
2015-Jul-26 13:33N 37°30' W 000°35'1211.7
2015-Jul-26 12:33N 37°23' W 000°46'1411.7
2015-Jul-26 11:23N 37°14' W 000°59'59511.6
2015-Jul-24 08:15N 31°33' W 010°49'1210.4
2015-Jul-24 07:06N 31°24' W 010°59'611.0
2015-Jul-24 06:33N 31°19' W 011°03'1111.4
2015-Jul-24 05:33N 31°11' W 011°12'1111.2
2015-Jul-24 04:33N 31°02' W 011°20'1111.2
2015-Jul-24 03:33N 30°54' W 011°29'1111.0
2015-Jul-24 02:33N 30°45' W 011°37'1110.7
2015-Jul-24 01:33N 30°37' W 011°45'1110.6
2015-Jul-24 00:33N 30°29' W 011°53'1110.7
2015-Jul-23 23:33N 30°21' W 012°01'1110.9
2015-Jul-23 22:33N 30°12' W 012°09'1110.6
2015-Jul-23 21:33N 30°04' W 012°17'1010.5
2015-Jul-23 20:33N 29°56' W 012°25'1210.6
2015-Jul-23 19:28N 29°47' W 012°33'1510.8
2015-Jul-23 18:07N 29°37' W 012°45'4110.8
2015-Jul-23 14:17N 29°05' W 013°16'1110.7
2015-Jul-23 13:13N 28°60' W 013°27'4 1.2
2015-Jul-23 09:32N 28°58' W 013°32'0 0.0
2015-Jul-23 08:32N 28°58' W 013°32'0 0.0
2015-Jul-23 07:32N 28°58' W 013°32'2 0.9
2015-Jul-23 05:33N 28°56' W 013°32'1313.5
2015-Jul-23 04:34N 28°50' W 013°46'1211.8
2015-Jul-23 03:33N 28°48' W 013°59'1211.8
2015-Jul-23 02:34N 28°42' W 014°11'1312.2
2015-Jul-23 01:31N 28°37' W 014°24'1112.0
2015-Jul-23 00:33N 28°31' W 014°36'1212.1
2015-Jul-22 23:33N 28°25' W 014°48'1211.8
2015-Jul-22 22:33N 28°20' W 014°60'1211.8
2015-Jul-22 21:33N 28°14' W 015°11'1312.5
2015-Jul-22 20:33N 28°07' W 015°23'2 1.6
2015-Jul-22 19:31N 28°08' W 015°25'0 0.0
2015-Jul-22 18:31N 28°08' W 015°25'0 0.0
2015-Jul-22 17:31N 28°08' W 015°25'0 0.0
2015-Jul-22 16:31N 28°08' W 015°25'0 0.0
2015-Jul-22 15:31N 28°08' W 015°25'0 0.0
2015-Jul-22 14:31N 28°08' W 015°25'0 0.0
2015-Jul-22 13:31N 28°08' W 015°25'0 0.0
2015-Jul-22 12:31N 28°08' W 015°25'0 0.0
2015-Jul-22 11:31N 28°08' W 015°25'0 0.0
2015-Jul-22 10:31N 28°08' W 015°25'0 0.0
2015-Jul-22 09:22N 28°08' W 015°25'0 0.0
2015-Jul-22 08:31N 28°08' W 015°25'0 0.0
2015-Jul-22 07:22N 28°08' W 015°25'0 0.0
2015-Jul-22 06:22N 28°08' W 015°25'0 0.0
2015-Jul-22 05:34N 28°08' W 015°25'0 0.0
2015-Jul-22 04:33N 28°08' W 015°25'0 0.0
2015-Jul-22 03:33N 28°08' W 015°25'0 0.0
2015-Jul-22 02:24N 28°08' W 015°25'0 0.0
2015-Jul-22 01:24N 28°08' W 015°25'0 0.0
2015-Jul-22 00:24N 28°08' W 015°25'0 0.0
2015-Jul-21 23:27N 28°08' W 015°25'0 0.0
2015-Jul-21 22:24N 28°08' W 015°25'0 0.0
2015-Jul-21 21:27N 28°08' W 015°25'0 0.0
2015-Jul-21 20:27N 28°08' W 015°25'0 0.2
2015-Jul-21 19:34N 28°08' W 015°25'6 5.7
2015-Jul-21 18:34N 28°14' W 015°25'1111.3
2015-Jul-21 17:34N 28°16' W 015°38'1111.5
2015-Jul-21 16:34N 28°17' W 015°51'1111.2
2015-Jul-21 15:34N 28°20' W 016°03'1212.1
2015-Jul-21 14:33N 28°28' W 016°13'1 0.8
2015-Jul-21 13:16N 28°29' W 016°13'0 0.0
2015-Jul-21 12:22N 28°29' W 016°13'0 0.0
2015-Jul-21 11:19N 28°29' W 016°13'0 0.0
2015-Jul-21 10:19N 28°29' W 016°13'0 0.0
2015-Jul-21 09:22N 28°29' W 016°13'0 0.0
2015-Jul-21 08:25N 28°29' W 016°13'0 0.0
2015-Jul-21 07:25N 28°29' W 016°13'0 0.0
2015-Jul-21 06:25N 28°29' W 016°13'2 2.1
2015-Jul-21 05:33N 28°29' W 016°12'1616.0
2015-Jul-21 04:33N 28°37' W 015°57'1716.7
2015-Jul-21 03:33N 28°48' W 015°42'1716.6
2015-Jul-21 02:33N 28°59' W 015°28'1716.6
2015-Jul-21 01:32N 29°10' W 015°13'1616.8
2015-Jul-21 00:33N 29°21' W 014°59'1716.9
2015-Jul-20 23:33N 29°32' W 014°44'1717.0
2015-Jul-20 22:33N 29°43' W 014°29'1716.7
2015-Jul-20 21:33N 29°54' W 014°14'1917.1
2015-Jul-20 20:28N 30°05' W 013°58'1816.9
2015-Jul-20 19:26N 30°17' W 013°42'1716.6
2015-Jul-20 18:24N 30°28' W 013°28'4616.0
2015-Jul-20 15:32N 30°58' W 012°47'33316.7
2015-Jul-19 19:33N 34°36' W 007°48'1716.9
2015-Jul-19 18:33N 34°47' W 007°32'1716.6
2015-Jul-19 17:33N 34°57' W 007°16'1616.3
2015-Jul-19 16:33N 35°08' W 007°02'3316.3
2015-Jul-19 14:32N 35°30' W 006°31'21515.2
2015-Jul-19 00:21N 36°26' W 002°14'3216.6
2015-Jul-18 22:24N 36°46' W 001°42'1917.0
2015-Jul-18 21:17N 36°58' W 001°24'1216.6
2015-Jul-18 20:33N 37°06' W 001°13'1917.0
2015-Jul-18 19:27N 37°19' W 000°55'1516.3
2015-Jul-18 18:33N 37°29' W 000°42'1515.4
2015-Jul-18 17:33N 37°41' W 000°31'1616.4
2015-Jul-18 16:34N 37°57' W 000°27'1915.1
2015-Jul-18 15:18N 38°16' W 000°28'6 1.0
2015-Jul-18 09:27N 38°20' W 000°22'1916.6
2015-Jul-18 08:18N 38°29' W 000°01'1316.5
2015-Jul-18 07:32N 38°36' E 000°13'1616.0
2015-Jul-18 06:33N 38°48' E 000°26'3416.8
2015-Jul-18 04:33N 39°17' E 000°47'3417.1
2015-Jul-18 02:33N 39°47' E 001°08'  
Track history (hours):
 
Tides and Currents Weather Stations Pressure Air Temp Water Temp Dewpoint Dewpoint Depression Visibility Wind Speed Wind Dir Waves Ship Positions

Neuburg

Last reported at 2015-Jul-28 02:18 UTC. Time now 2015-Jul-29 09:30 UTC.
Position N 40°57' E 001°58'.

Length 142 m; draft 5.2 m.

Type: Cargo ship. MMSI: 212740000.

Date/timePositionNaut miles runAvg speedWind from/ knotsBaromVisibWave heightAir tempDewpointWater temp
2015-Jul-28 02:18N 40°57' E 001°58'1011.9
2015-Jul-28 01:29N 40°49' E 001°52'1211.9
2015-Jul-28 00:28N 40°38' E 001°44'1111.8
2015-Jul-27 23:33N 40°29' E 001°37'1212.0
2015-Jul-27 22:33N 40°18' E 001°31'1212.2
2015-Jul-27 21:33N 40°07' E 001°24'1312.3
2015-Jul-27 20:30N 39°56' E 001°16'1212.3
2015-Jul-27 19:33N 39°45' E 001°09'1812.8
2015-Jul-27 18:07N 39°29' E 000°58'1012.6
2015-Jul-27 17:21N 39°20' E 000°53'1112.6
2015-Jul-27 16:31N 39°11' E 000°47'1212.1
2015-Jul-27 15:31N 39°00' E 000°39'1212.3
2015-Jul-27 14:32N 38°49' E 000°32'1312.9
2015-Jul-27 13:33N 38°39' E 000°23'1312.6
2015-Jul-27 12:33N 38°32' E 000°09'1312.8
2015-Jul-27 11:33N 38°27' W 000°05'1212.5
2015-Jul-27 10:33N 38°22' W 000°20'17 0.9
2015-Jul-26 16:28N 38°05' W 000°23'1212.8
2015-Jul-26 15:33N 37°53' W 000°26'1212.5
2015-Jul-26 14:33N 37°41' W 000°29'1211.7
2015-Jul-26 13:33N 37°30' W 000°35'1211.7
2015-Jul-26 12:33N 37°23' W 000°46'1411.7
2015-Jul-26 11:23N 37°14' W 000°59'59511.6
2015-Jul-24 08:15N 31°33' W 010°49'1210.4
2015-Jul-24 07:06N 31°24' W 010°59'611.0
2015-Jul-24 06:33N 31°19' W 011°03'1111.4
2015-Jul-24 05:33N 31°11' W 011°12'1111.2
2015-Jul-24 04:33N 31°02' W 011°20'1111.2
2015-Jul-24 03:33N 30°54' W 011°29'1111.0
2015-Jul-24 02:33N 30°45' W 011°37'1110.7
2015-Jul-24 01:33N 30°37' W 011°45'1110.6
2015-Jul-24 00:33N 30°29' W 011°53'1110.7
2015-Jul-23 23:33N 30°21' W 012°01'1110.9
2015-Jul-23 22:33N 30°12' W 012°09'1110.6
2015-Jul-23 21:33N 30°04' W 012°17'1010.5
2015-Jul-23 20:33N 29°56' W 012°25'1210.6
2015-Jul-23 19:28N 29°47' W 012°33'1510.8
2015-Jul-23 18:07N 29°37' W 012°45'4110.8
2015-Jul-23 14:17N 29°05' W 013°16'1110.7
2015-Jul-23 13:13N 28°60' W 013°27'4 1.2
2015-Jul-23 09:32N 28°58' W 013°32'0 0.0
2015-Jul-23 08:32N 28°58' W 013°32'0 0.0
2015-Jul-23 07:32N 28°58' W 013°32'2 0.9
2015-Jul-23 05:33N 28°56' W 013°32'1313.5
2015-Jul-23 04:34N 28°50' W 013°46'1211.8
2015-Jul-23 03:33N 28°48' W 013°59'1211.8
2015-Jul-23 02:34N 28°42' W 014°11'1312.2
2015-Jul-23 01:31N 28°37' W 014°24'1112.0
2015-Jul-23 00:33N 28°31' W 014°36'1212.1
2015-Jul-22 23:33N 28°25' W 014°48'1211.8
2015-Jul-22 22:33N 28°20' W 014°60'1211.8
2015-Jul-22 21:33N 28°14' W 015°11'1312.5
2015-Jul-22 20:33N 28°07' W 015°23'2 1.6
2015-Jul-22 19:31N 28°08' W 015°25'0 0.0
2015-Jul-22 18:31N 28°08' W 015°25'0 0.0
2015-Jul-22 17:31N 28°08' W 015°25'0 0.0
2015-Jul-22 16:31N 28°08' W 015°25'0 0.0
2015-Jul-22 15:31N 28°08' W 015°25'0 0.0
2015-Jul-22 14:31N 28°08' W 015°25'0 0.0
2015-Jul-22 13:31N 28°08' W 015°25'0 0.0
2015-Jul-22 12:31N 28°08' W 015°25'0 0.0
2015-Jul-22 11:31N 28°08' W 015°25'0 0.0
2015-Jul-22 10:31N 28°08' W 015°25'0 0.0
2015-Jul-22 09:22N 28°08' W 015°25'0 0.0
2015-Jul-22 08:31N 28°08' W 015°25'0 0.0
2015-Jul-22 07:22N 28°08' W 015°25'0 0.0
2015-Jul-22 06:22N 28°08' W 015°25'0 0.0
2015-Jul-22 05:34N 28°08' W 015°25'0 0.0
2015-Jul-22 04:33N 28°08' W 015°25'0 0.0
2015-Jul-22 03:33N 28°08' W 015°25'0 0.0
2015-Jul-22 02:24N 28°08' W 015°25'0 0.0
2015-Jul-22 01:24N 28°08' W 015°25'0 0.0
2015-Jul-22 00:24N 28°08' W 015°25'0 0.0
2015-Jul-21 23:27N 28°08' W 015°25'0 0.0
2015-Jul-21 22:24N 28°08' W 015°25'0 0.0
2015-Jul-21 21:27N 28°08' W 015°25'0 0.0
2015-Jul-21 20:27N 28°08' W 015°25'0 0.2
2015-Jul-21 19:34N 28°08' W 015°25'6 5.7
2015-Jul-21 18:34N 28°14' W 015°25'1111.3
2015-Jul-21 17:34N 28°16' W 015°38'1111.5
2015-Jul-21 16:34N 28°17' W 015°51'1111.2
2015-Jul-21 15:34N 28°20' W 016°03'1212.1
2015-Jul-21 14:33N 28°28' W 016°13'1 0.8
2015-Jul-21 13:16N 28°29' W 016°13'0 0.0
2015-Jul-21 12:22N 28°29' W 016°13'0 0.0
2015-Jul-21 11:19N 28°29' W 016°13'0 0.0
2015-Jul-21 10:19N 28°29' W 016°13'0 0.0
2015-Jul-21 09:22N 28°29' W 016°13'0 0.0
2015-Jul-21 08:25N 28°29' W 016°13'0 0.0
2015-Jul-21 07:25N 28°29' W 016°13'0 0.0
2015-Jul-21 06:25N 28°29' W 016°13'2 2.1
2015-Jul-21 05:33N 28°29' W 016°12'1616.0
2015-Jul-21 04:33N 28°37' W 015°57'1716.7
2015-Jul-21 03:33N 28°48' W 015°42'1716.6
2015-Jul-21 02:33N 28°59' W 015°28'1716.6
2015-Jul-21 01:32N 29°10' W 015°13'1616.8
2015-Jul-21 00:33N 29°21' W 014°59'1716.9
2015-Jul-20 23:33N 29°32' W 014°44'1717.0
2015-Jul-20 22:33N 29°43' W 014°29'1716.7
2015-Jul-20 21:33N 29°54' W 014°14'1917.1
2015-Jul-20 20:28N 30°05' W 013°58'1816.9
2015-Jul-20 19:26N 30°17' W 013°42'1716.6
2015-Jul-20 18:24N 30°28' W 013°28'4616.0
2015-Jul-20 15:32N 30°58' W 012°47'33316.7
2015-Jul-19 19:33N 34°36' W 007°48'1716.9
2015-Jul-19 18:33N 34°47' W 007°32'1716.6
2015-Jul-19 17:33N 34°57' W 007°16'1616.3
2015-Jul-19 16:33N 35°08' W 007°02'3316.3
2015-Jul-19 14:32N 35°30' W 006°31'21515.2
2015-Jul-19 00:21N 36°26' W 002°14'3216.6
2015-Jul-18 22:24N 36°46' W 001°42'1917.0
2015-Jul-18 21:17N 36°58' W 001°24'1216.6
2015-Jul-18 20:33N 37°06' W 001°13'1917.0
2015-Jul-18 19:27N 37°19' W 000°55'1516.3
2015-Jul-18 18:33N 37°29' W 000°42'1515.4
2015-Jul-18 17:33N 37°41' W 000°31'1616.4
2015-Jul-18 16:34N 37°57' W 000°27'1915.1
2015-Jul-18 15:18N 38°16' W 000°28'6 1.0
2015-Jul-18 09:27N 38°20' W 000°22'1916.6
2015-Jul-18 08:18N 38°29' W 000°01'1316.5
2015-Jul-18 07:32N 38°36' E 000°13'1616.0
2015-Jul-18 06:33N 38°48' E 000°26'3416.8
2015-Jul-18 04:33N 39°17' E 000°47'3417.1
2015-Jul-18 02:33N 39°47' E 001°08'  

Dump ship's entire track history